ESGT/THN METAR and TAF weather

Enter ICAO airport designator
Station Type Date Time Source
ESGT METAR 2021/08/01 16:20 UTC NOAA

ESGT 011620Z AUTO 23014KT 210V270 9999 R15///// R33/P2000N FEW039/// 18/09 Q1000


Station Type Date Time Source
ESGT Decoded METAR 2021/08/01 16:20 UTC NOAA

Trollhattan Private , Sweden (ESGT) 58-19N 012-21E
Aug 01, 2021 - 12:20 PM EDT / 2021.08.01 1620 UTC
Wind: from the SW (230 degrees) at 16 MPH (14 KT) (direction variable):0
Visibility: greater than 7 mile(s):0
Sky conditions: mostly clear
Temperature: 64 F (18 C)
Dew Point: 48 F (9 C)
Relative Humidity: 55%
Pressure (altimeter): 29.53 in. Hg (1000 hPa)
ob: ESGT 011620Z AUTO 23014KT 210V270 9999 R15///// R33/P2000N FEW039/// 18/09 Q1000
cycle: 16

Station Type Date Time Source
ESGT TAF 2016/08/12 05:58 UTC NOAA

TAF ESGT 120430Z 1205/1224 18007KT 9999 FEW030

Example: see airport list